sensor_id;sensor_type;location;lat;lon;timestamp;pressure;altitude;pressure_sealevel;temperature;humidity
40650;BME280;26342;42.826;23.992;2022-12-28T00:02:06;96371.09;;;4.35;100.00
40650;BME280;26342;42.826;23.992;2022-12-28T00:04:32;96375.56;;;4.35;100.00
40650;BME280;26342;42.826;23.992;2022-12-28T00:06:57;96373.00;;;4.20;100.00
40650;BME280;26342;42.826;23.992;2022-12-28T00:09:23;96380.94;;;4.20;100.00
40650;BME280;26342;42.826;23.992;2022-12-28T00:11:49;96387.13;;;4.34;100.00
40650;BME280;26342;42.826;23.992;2022-12-28T00:14:14;96392.78;;;4.31;100.00
40650;BME280;26342;42.826;23.992;2022-12-28T00:16:41;96388.22;;;4.18;100.00
40650;BME280;26342;42.826;23.992;2022-12-28T00:19:14;96395.78;;;4.21;100.00
40650;BME280;26342;42.826;23.992;2022-12-28T00:21:41;96391.69;;;4.18;100.00
40650;BME280;26342;42.826;23.992;2022-12-28T00:24:07;96390.25;;;4.16;100.00
40650;BME280;26342;42.826;23.992;2022-12-28T00:26:34;96399.44;;;4.20;100.00
40650;BME280;26342;42.826;23.992;2022-12-28T00:29:00;96404.53;;;4.22;100.00
40650;BME280;26342;42.826;23.992;2022-12-28T00:31:26;96408.59;;;4.24;100.00
40650;BME280;26342;42.826;23.992;2022-12-28T00:33:52;96409.88;;;4.28;100.00
40650;BME280;26342;42.826;23.992;2022-12-28T00:36:17;96405.75;;;4.26;100.00
40650;BME280;26342;42.826;23.992;2022-12-28T00:38:43;96412.31;;;4.30;100.00
40650;BME280;26342;42.826;23.992;2022-12-28T00:41:09;96407.44;;;4.33;100.00
40650;BME280;26342;42.826;23.992;2022-12-28T00:43:36;96407.03;;;4.30;100.00
40650;BME280;26342;42.826;23.992;2022-12-28T00:46:02;96413.41;;;4.42;100.00
40650;BME280;26342;42.826;23.992;2022-12-28T00:48:28;96410.34;;;4.38;100.00
40650;BME280;26342;42.826;23.992;2022-12-28T00:51:01;96414.81;;;4.38;100.00
40650;BME280;26342;42.826;23.992;2022-12-28T00:53:27;96423.34;;;4.40;100.00
40650;BME280;26342;42.826;23.992;2022-12-28T00:55:52;96433.97;;;4.46;100.00
40650;BME280;26342;42.826;23.992;2022-12-28T00:58:17;96441.09;;;4.46;100.00
40650;BME280;26342;42.826;23.992;2022-12-28T01:00:43;96446.13;;;4.41;100.00
40650;BME280;26342;42.826;23.992;2022-12-28T01:03:08;96432.09;;;4.40;100.00
40650;BME280;26342;42.826;23.992;2022-12-28T01:05:33;96430.91;;;4.43;100.00
40650;BME280;26342;42.826;23.992;2022-12-28T01:08:02;96419.47;;;4.36;100.00
40650;BME280;26342;42.826;23.992;2022-12-28T01:10:27;96409.28;;;4.33;100.00
40650;BME280;26342;42.826;23.992;2022-12-28T01:12:53;96429.72;;;4.24;100.00
40650;BME280;26342;42.826;23.992;2022-12-28T01:15:19;96438.47;;;4.25;100.00
40650;BME280;26342;42.826;23.992;2022-12-28T01:17:44;96438.06;;;4.21;100.00
40650;BME280;26342;42.826;23.992;2022-12-28T01:20:10;96453.09;;;4.20;100.00
40650;BME280;26342;42.826;23.992;2022-12-28T01:22:35;96443.53;;;4.19;100.00
40650;BME280;26342;42.826;23.992;2022-12-28T01:25:00;96440.75;;;4.28;100.00
40650;BME280;26342;42.826;23.992;2022-12-28T01:27:26;96435.22;;;4.23;100.00
40650;BME280;26342;42.826;23.992;2022-12-28T01:29:51;96440.09;;;4.26;100.00
40650;BME280;26342;42.826;23.992;2022-12-28T01:32:16;96435.84;;;4.25;100.00
40650;BME280;26342;42.826;23.992;2022-12-28T01:34:42;96439.53;;;4.30;100.00
40650;BME280;26342;42.826;23.992;2022-12-28T01:37:07;96438.94;;;4.28;100.00
40650;BME280;26342;42.826;23.992;2022-12-28T01:39:33;96437.56;;;4.39;100.00
40650;BME280;26342;42.826;23.992;2022-12-28T01:41:59;96432.50;;;4.37;100.00
40650;BME280;26342;42.826;23.992;2022-12-28T01:47:01;96433.56;;;4.43;100.00
40650;BME280;26342;42.826;23.992;2022-12-28T01:49:31;96437.56;;;4.39;100.00
40650;BME280;26342;42.826;23.992;2022-12-28T01:52:11;96437.72;;;4.31;100.00
40650;BME280;26342;42.826;23.992;2022-12-28T01:54:51;96433.25;;;4.31;100.00
40650;BME280;26342;42.826;23.992;2022-12-28T01:57:20;96432.22;;;4.32;100.00
40650;BME280;26342;42.826;23.992;2022-12-28T01:59:55;96422.94;;;4.36;100.00
40650;BME280;26342;42.826;23.992;2022-12-28T02:02:21;96415.75;;;4.30;100.00
40650;BME280;26342;42.826;23.992;2022-12-28T02:04:47;96425.03;;;4.19;100.00
40650;BME280;26342;42.826;23.992;2022-12-28T02:07:19;96431.94;;;4.20;100.00
40650;BME280;26342;42.826;23.992;2022-12-28T02:09:47;96434.88;;;4.32;100.00
40650;BME280;26342;42.826;23.992;2022-12-28T02:12:14;96440.56;;;4.29;100.00
40650;BME280;26342;42.826;23.992;2022-12-28T02:14:42;96432.63;;;4.29;100.00
40650;BME280;26342;42.826;23.992;2022-12-28T02:17:09;96440.16;;;4.32;100.00
40650;BME280;26342;42.826;23.992;2022-12-28T02:19:45;96440.97;;;4.33;100.00
40650;BME280;26342;42.826;23.992;2022-12-28T02:30:14;96434.72;;;4.40;100.00
40650;BME280;26342;42.826;23.992;2022-12-28T02:35:54;96430.72;;;4.44;100.00
40650;BME280;26342;42.826;23.992;2022-12-28T02:38:27;96436.19;;;4.43;100.00
40650;BME280;26342;42.826;23.992;2022-12-28T02:41:04;96442.91;;;4.45;100.00
40650;BME280;26342;42.826;23.992;2022-12-28T02:43:32;96445.38;;;4.47;100.00
40650;BME280;26342;42.826;23.992;2022-12-28T02:46:08;96452.56;;;4.32;100.00
40650;BME280;26342;42.826;23.992;2022-12-28T02:48:52;96434.25;;;4.30;100.00
40650;BME280;26342;42.826;23.992;2022-12-28T02:51:45;96443.81;;;4.31;100.00
40650;BME280;26342;42.826;23.992;2022-12-28T03:00:19;96444.22;;;4.28;100.00
40650;BME280;26342;42.826;23.992;2022-12-28T03:11:38;96433.59;;;4.22;100.00
40650;BME280;26342;42.826;23.992;2022-12-28T03:14:11;96434.47;;;4.07;100.00
40650;BME280;26342;42.826;23.992;2022-12-28T03:16:42;96431.34;;;3.97;100.00
40650;BME280;26342;42.826;23.992;2022-12-28T03:19:31;96422.16;;;3.93;100.00
40650;BME280;26342;42.826;23.992;2022-12-28T03:22:17;96415.16;;;3.85;100.00
40650;BME280;26342;42.826;23.992;2022-12-28T03:25:06;96429.44;;;3.91;100.00
40650;BME280;26342;42.826;23.992;2022-12-28T03:27:52;96435.00;;;3.96;100.00
40650;BME280;26342;42.826;23.992;2022-12-28T03:30:39;96438.69;;;4.02;100.00
40650;BME280;26342;42.826;23.992;2022-12-28T03:33:26;96446.03;;;4.06;100.00
40650;BME280;26342;42.826;23.992;2022-12-28T03:36:02;96438.50;;;4.03;100.00
40650;BME280;26342;42.826;23.992;2022-12-28T03:38:41;96443.22;;;4.08;100.00
40650;BME280;26342;42.826;23.992;2022-12-28T03:41:15;96453.41;;;4.11;100.00
40650;BME280;26342;42.826;23.992;2022-12-28T03:43:51;96462.59;;;4.15;100.00
40650;BME280;26342;42.826;23.992;2022-12-28T03:46:20;96456.34;;;4.23;100.00
40650;BME280;26342;42.826;23.992;2022-12-28T03:48:48;96452.81;;;4.15;100.00
40650;BME280;26342;42.826;23.992;2022-12-28T03:51:18;96457.97;;;4.24;100.00
40650;BME280;26342;42.826;23.992;2022-12-28T03:53:45;96451.50;;;4.26;100.00
40650;BME280;26342;42.826;23.992;2022-12-28T03:56:15;96451.31;;;4.28;100.00
40650;BME280;26342;42.826;23.992;2022-12-28T03:58:41;96450.94;;;4.31;100.00
40650;BME280;26342;42.826;23.992;2022-12-28T04:01:07;96435.28;;;4.29;100.00
40650;BME280;26342;42.826;23.992;2022-12-28T04:03:33;96431.13;;;4.20;100.00
40650;BME280;26342;42.826;23.992;2022-12-28T04:05:58;96433.09;;;4.11;100.00
40650;BME280;26342;42.826;23.992;2022-12-28T04:08:25;96428.69;;;3.97;100.00
40650;BME280;26342;42.826;23.992;2022-12-28T04:10:51;96430.88;;;3.93;100.00
40650;BME280;26342;42.826;23.992;2022-12-28T04:13:16;96429.25;;;3.92;100.00
40650;BME280;26342;42.826;23.992;2022-12-28T04:15:42;96432.03;;;3.84;100.00
40650;BME280;26342;42.826;23.992;2022-12-28T04:18:07;96426.78;;;3.70;100.00
40650;BME280;26342;42.826;23.992;2022-12-28T04:20:32;96426.78;;;3.70;100.00
40650;BME280;26342;42.826;23.992;2022-12-28T04:22:58;96427.19;;;3.67;100.00
40650;BME280;26342;42.826;23.992;2022-12-28T04:25:23;96437.00;;;3.73;100.00
40650;BME280;26342;42.826;23.992;2022-12-28T04:27:49;96433.97;;;3.76;100.00
40650;BME280;26342;42.826;23.992;2022-12-28T04:30:14;96435.28;;;3.86;100.00
40650;BME280;26342;42.826;23.992;2022-12-28T04:32:40;96436.63;;;3.97;100.00
40650;BME280;26342;42.826;23.992;2022-12-28T04:35:05;96428.19;;;4.08;100.00
40650;BME280;26342;42.826;23.992;2022-12-28T04:37:30;96433.31;;;4.16;100.00
40650;BME280;26342;42.826;23.992;2022-12-28T04:39:56;96425.19;;;4.11;100.00
40650;BME280;26342;42.826;23.992;2022-12-28T04:42:21;96417.63;;;4.08;100.00
40650;BME280;26342;42.826;23.992;2022-12-28T04:44:47;96432.28;;;4.11;100.00
40650;BME280;26342;42.826;23.992;2022-12-28T04:47:12;96430.69;;;4.16;100.00
40650;BME280;26342;42.826;23.992;2022-12-28T04:49:38;96431.94;;;4.20;100.00
40650;BME280;26342;42.826;23.992;2022-12-28T04:52:03;96441.06;;;4.18;100.00
40650;BME280;26342;42.826;23.992;2022-12-28T04:54:28;96440.69;;;4.21;100.00
40650;BME280;26342;42.826;23.992;2022-12-28T04:56:54;96444.78;;;4.24;100.00
40650;BME280;26342;42.826;23.992;2022-12-28T04:59:19;96444.41;;;4.27;100.00
40650;BME280;26342;42.826;23.992;2022-12-28T05:01:45;96452.34;;;4.27;100.00
40650;BME280;26342;42.826;23.992;2022-12-28T05:04:10;96457.22;;;4.30;100.00
40650;BME280;26342;42.826;23.992;2022-12-28T05:06:35;96457.84;;;4.32;100.00
40650;BME280;26342;42.826;23.992;2022-12-28T05:09:01;96455.19;;;4.32;100.00
40650;BME280;26342;42.826;23.992;2022-12-28T05:11:27;96447.88;;;4.27;100.00
40650;BME280;26342;42.826;23.992;2022-12-28T05:13:53;96453.97;;;4.28;100.00
40650;BME280;26342;42.826;23.992;2022-12-28T05:16:21;96454.97;;;4.27;100.00
40650;BME280;26342;42.826;23.992;2022-12-28T05:18:47;96464.69;;;4.26;100.00
40650;BME280;26342;42.826;23.992;2022-12-28T05:21:22;96473.91;;;4.30;100.00
40650;BME280;26342;42.826;23.992;2022-12-28T05:23:48;96471.81;;;4.26;100.00
40650;BME280;26342;42.826;23.992;2022-12-28T05:26:16;96477.69;;;4.21;100.00
40650;BME280;26342;42.826;23.992;2022-12-28T05:28:42;96470.31;;;4.16;100.00
40650;BME280;26342;42.826;23.992;2022-12-28T05:31:11;96472.59;;;4.19;100.00
40650;BME280;26342;42.826;23.992;2022-12-28T05:33:38;96486.47;;;4.28;100.00
40650;BME280;26342;42.826;23.992;2022-12-28T05:36:08;96480.75;;;4.25;100.00
40650;BME280;26342;42.826;23.992;2022-12-28T05:38:35;96476.34;;;4.10;100.00
40650;BME280;26342;42.826;23.992;2022-12-28T05:41:08;96488.72;;;4.10;100.00
40650;BME280;26342;42.826;23.992;2022-12-28T05:43:35;96491.50;;;4.02;100.00
40650;BME280;26342;42.826;23.992;2022-12-28T05:46:04;96503.69;;;4.03;100.00
40650;BME280;26342;42.826;23.992;2022-12-28T05:48:32;96498.59;;;4.01;100.00
40650;BME280;26342;42.826;23.992;2022-12-28T05:51:03;96497.59;;;4.02;100.00
40650;BME280;26342;42.826;23.992;2022-12-28T05:53:29;96493.63;;;3.91;100.00
40650;BME280;26342;42.826;23.992;2022-12-28T05:56:05;96509.81;;;4.03;100.00
40650;BME280;26342;42.826;23.992;2022-12-28T05:58:31;96507.81;;;4.05;100.00
40650;BME280;26342;42.826;23.992;2022-12-28T06:01:15;96523.16;;;3.95;100.00
40650;BME280;26342;42.826;23.992;2022-12-28T06:03:41;96509.59;;;3.83;100.00
40650;BME280;26342;42.826;23.992;2022-12-28T06:06:12;96523.63;;;3.84;100.00
40650;BME280;26342;42.826;23.992;2022-12-28T06:08:39;96534.69;;;3.94;100.00
40650;BME280;26342;42.826;23.992;2022-12-28T06:11:06;96527.16;;;3.91;100.00
40650;BME280;26342;42.826;23.992;2022-12-28T06:13:33;96532.00;;;3.87;100.00
40650;BME280;26342;42.826;23.992;2022-12-28T06:16:03;96542.09;;;3.84;100.00
40650;BME280;26342;42.826;23.992;2022-12-28T06:18:28;96548.47;;;3.89;100.00
40650;BME280;26342;42.826;23.992;2022-12-28T06:21:03;96547.84;;;3.87;100.00
40650;BME280;26342;42.826;23.992;2022-12-28T06:23:30;96549.59;;;3.80;100.00
40650;BME280;26342;42.826;23.992;2022-12-28T06:26:00;96538.56;;;3.77;100.00
40650;BME280;26342;42.826;23.992;2022-12-28T06:28:26;96531.25;;;3.57;100.00
40650;BME280;26342;42.826;23.992;2022-12-28T06:30:59;96526.50;;;3.38;100.00
40650;BME280;26342;42.826;23.992;2022-12-28T06:33:25;96525.88;;;3.21;100.00
40650;BME280;26342;42.826;23.992;2022-12-28T06:35:50;96534.09;;;3.26;100.00
40650;BME280;26342;42.826;23.992;2022-12-28T06:38:15;96534.28;;;3.25;100.00
40650;BME280;26342;42.826;23.992;2022-12-28T06:40:41;96527.72;;;3.21;100.00
40650;BME280;26342;42.826;23.992;2022-12-28T06:43:06;96529.09;;;3.17;100.00
40650;BME280;26342;42.826;23.992;2022-12-28T06:45:31;96530.16;;;3.22;100.00
40650;BME280;26342;42.826;23.992;2022-12-28T06:47:57;96530.81;;;3.24;100.00
40650;BME280;26342;42.826;23.992;2022-12-28T06:50:22;96528.91;;;3.33;100.00
40650;BME280;26342;42.826;23.992;2022-12-28T06:52:47;96522.53;;;3.42;100.00
40650;BME280;26342;42.826;23.992;2022-12-28T06:55:13;96522.66;;;3.55;100.00
40650;BME280;26342;42.826;23.992;2022-12-28T06:57:38;96527.50;;;3.67;100.00
40650;BME280;26342;42.826;23.992;2022-12-28T07:00:05;96524.47;;;3.70;100.00
40650;BME280;26342;42.826;23.992;2022-12-28T07:02:31;96523.53;;;3.77;100.00
40650;BME280;26342;42.826;23.992;2022-12-28T07:04:56;96507.81;;;3.69;100.00
40650;BME280;26342;42.826;23.992;2022-12-28T07:07:21;96521.59;;;3.86;100.00
40650;BME280;26342;42.826;23.992;2022-12-28T07:09:47;96519.66;;;3.95;100.00
40650;BME280;26342;42.826;23.992;2022-12-28T07:12:12;96516.47;;;3.99;100.00
40650;BME280;26342;42.826;23.992;2022-12-28T07:14:38;96521.25;;;4.10;100.00
40650;BME280;26342;42.826;23.992;2022-12-28T07:17:03;96521.50;;;4.15;100.00
40650;BME280;26342;42.826;23.992;2022-12-28T07:19:29;96512.03;;;4.21;100.00
40650;BME280;26342;42.826;23.992;2022-12-28T07:21:54;96524.50;;;4.27;100.00
40650;BME280;26342;42.826;23.992;2022-12-28T07:24:20;96529.81;;;4.34;100.00
40650;BME280;26342;42.826;23.992;2022-12-28T07:26:46;96530.13;;;4.45;100.00
40650;BME280;26342;42.826;23.992;2022-12-28T07:29:12;96525.09;;;4.51;100.00
40650;BME280;26342;42.826;23.992;2022-12-28T07:31:38;96522.19;;;4.45;100.00
40650;BME280;26342;42.826;23.992;2022-12-28T07:34:04;96520.00;;;4.49;100.00
40650;BME280;26342;42.826;23.992;2022-12-28T07:36:31;96522.13;;;4.60;100.00
40650;BME280;26342;42.826;23.992;2022-12-28T07:38:57;96514.19;;;4.60;100.00
40650;BME280;26342;42.826;23.992;2022-12-28T07:41:25;96522.81;;;4.69;100.00
40650;BME280;26342;42.826;23.992;2022-12-28T07:43:52;96519.56;;;4.73;100.00
40650;BME280;26342;42.826;23.992;2022-12-28T07:46:19;96527.00;;;4.85;100.00
40650;BME280;26342;42.826;23.992;2022-12-28T07:48:45;96523.13;;;4.87;100.00
40650;BME280;26342;42.826;23.992;2022-12-28T07:53:48;96523.44;;;4.99;100.00
40650;BME280;26342;42.826;23.992;2022-12-28T07:56:14;96507.56;;;4.99;100.00
40650;BME280;26342;42.826;23.992;2022-12-28T07:58:40;96505.13;;;5.04;100.00
40650;BME280;26342;42.826;23.992;2022-12-28T08:01:11;96507.81;;;5.11;100.00
40650;BME280;26342;42.826;23.992;2022-12-28T08:03:37;96508.28;;;5.21;100.00
40650;BME280;26342;42.826;23.992;2022-12-28T08:08:40;96510.19;;;5.33;100.00
40650;BME280;26342;42.826;23.992;2022-12-28T08:11:10;96513.47;;;5.36;100.00
40650;BME280;26342;42.826;23.992;2022-12-28T08:13:39;96512.84;;;5.33;100.00
40650;BME280;26342;42.826;23.992;2022-12-28T08:16:05;96509.78;;;5.30;100.00
40650;BME280;26342;42.826;23.992;2022-12-28T08:18:31;96508.16;;;5.36;100.00
40650;BME280;26342;42.826;23.992;2022-12-28T08:21:01;96505.91;;;5.32;100.00
40650;BME280;26342;42.826;23.992;2022-12-28T08:23:29;96512.44;;;5.37;100.00
40650;BME280;26342;42.826;23.992;2022-12-28T08:25:55;96508.81;;;5.38;100.00
40650;BME280;26342;42.826;23.992;2022-12-28T08:28:20;96512.09;;;5.46;100.00
40650;BME280;26342;42.826;23.992;2022-12-28T08:30:46;96497.03;;;5.47;100.00
40650;BME280;26342;42.826;23.992;2022-12-28T08:33:11;96504.56;;;5.50;100.00
40650;BME280;26342;42.826;23.992;2022-12-28T08:35:36;96499.72;;;5.53;100.00
40650;BME280;26342;42.826;23.992;2022-12-28T08:38:02;96507.50;;;5.62;100.00
40650;BME280;26342;42.826;23.992;2022-12-28T08:40:27;96489.75;;;5.55;100.00
40650;BME280;26342;42.826;23.992;2022-12-28T08:43:00;96506.50;;;5.69;100.00
40650;BME280;26342;42.826;23.992;2022-12-28T08:45:26;96499.75;;;5.67;100.00
40650;BME280;26342;42.826;23.992;2022-12-28T08:47:52;96497.34;;;5.72;100.00
40650;BME280;26342;42.826;23.992;2022-12-28T08:50:18;96496.94;;;5.81;100.00
40650;BME280;26342;42.826;23.992;2022-12-28T08:52:43;96489.22;;;5.86;100.00
40650;BME280;26342;42.826;23.992;2022-12-28T08:55:09;96492.53;;;5.95;100.00
40650;BME280;26342;42.826;23.992;2022-12-28T08:57:34;96486.00;;;5.91;100.00
40650;BME280;26342;42.826;23.992;2022-12-28T09:00:00;96486.44;;;5.95;100.00
40650;BME280;26342;42.826;23.992;2022-12-28T09:02:25;96482.34;;;5.99;100.00
40650;BME280;26342;42.826;23.992;2022-12-28T09:04:51;96475.84;;;6.01;100.00
40650;BME280;26342;42.826;23.992;2022-12-28T09:07:16;96469.94;;;6.06;100.00
40650;BME280;26342;42.826;23.992;2022-12-28T09:09:42;96472.38;;;6.07;100.00
40650;BME280;26342;42.826;23.992;2022-12-28T09:12:07;96468.31;;;6.11;100.00
40650;BME280;26342;42.826;23.992;2022-12-28T09:14:32;96463.84;;;6.12;100.00
40650;BME280;26342;42.826;23.992;2022-12-28T09:16:58;96459.38;;;6.19;100.00
40650;BME280;26342;42.826;23.992;2022-12-28T09:19:26;96459.16;;;6.21;100.00
40650;BME280;26342;42.826;23.992;2022-12-28T09:21:51;96450.81;;;6.17;100.00
40650;BME280;26342;42.826;23.992;2022-12-28T09:24:17;96463.66;;;6.27;100.00
40650;BME280;26342;42.826;23.992;2022-12-28T09:26:43;96459.16;;;6.27;100.00
40650;BME280;26342;42.826;23.992;2022-12-28T09:29:10;96458.16;;;6.35;100.00
40650;BME280;26342;42.826;23.992;2022-12-28T09:31:37;96443.88;;;6.36;100.00
40650;BME280;26342;42.826;23.992;2022-12-28T09:34:05;96432.88;;;6.32;100.00
40650;BME280;26342;42.826;23.992;2022-12-28T09:36:34;96444.09;;;6.34;100.00
40650;BME280;26342;42.826;23.992;2022-12-28T09:39:02;96434.50;;;6.40;100.00
40650;BME280;26342;42.826;23.992;2022-12-28T09:46:51;96424.91;;;6.46;100.00
40650;BME280;26342;42.826;23.992;2022-12-28T09:49:20;96420.63;;;6.44;100.00
40650;BME280;26342;42.826;23.992;2022-12-28T09:51:53;96420.19;;;6.48;100.00
40650;BME280;26342;42.826;23.992;2022-12-28T09:54:19;96423.66;;;6.55;100.00
40650;BME280;26342;42.826;23.992;2022-12-28T09:56:45;96416.34;;;6.57;100.00
40650;BME280;26342;42.826;23.992;2022-12-28T09:59:16;96414.50;;;6.64;100.00
40650;BME280;26342;42.826;23.992;2022-12-28T10:01:44;96411.63;;;6.65;100.00
40650;BME280;26342;42.826;23.992;2022-12-28T10:04:14;96409.78;;;6.66;100.00
40650;BME280;26342;42.826;23.992;2022-12-28T10:06:39;96395.72;;;6.72;100.00
40650;BME280;26342;42.826;23.992;2022-12-28T10:09:24;96397.94;;;6.75;100.00
40650;BME280;26342;42.826;23.992;2022-12-28T10:11:51;96394.84;;;6.78;100.00
40650;BME280;26342;42.826;23.992;2022-12-28T10:14:28;96392.59;;;6.88;100.00
40650;BME280;26342;42.826;23.992;2022-12-28T10:17:03;96390.56;;;6.90;100.00
40650;BME280;26342;42.826;23.992;2022-12-28T10:19:30;96398.94;;;6.87;100.00
40650;BME280;26342;42.826;23.992;2022-12-28T10:22:00;96403.00;;;6.90;100.00
40650;BME280;26342;42.826;23.992;2022-12-28T10:24:26;96397.28;;;6.93;100.00
40650;BME280;26342;42.826;23.992;2022-12-28T10:26:53;96396.69;;;6.91;100.00
40650;BME280;26342;42.826;23.992;2022-12-28T10:29:21;96388.50;;;6.92;100.00
40650;BME280;26342;42.826;23.992;2022-12-28T10:32:02;96397.88;;;6.95;100.00
40650;BME280;26342;42.826;23.992;2022-12-28T10:34:30;96396.03;;;7.02;100.00
40650;BME280;26342;42.826;23.992;2022-12-28T10:37:03;96387.44;;;7.07;100.00
40650;BME280;26342;42.826;23.992;2022-12-28T10:39:31;96388.25;;;7.07;100.00
40650;BME280;26342;42.826;23.992;2022-12-28T10:41:57;96383.97;;;7.13;100.00
40650;BME280;26342;42.826;23.992;2022-12-28T10:44:32;96374.75;;;7.15;100.00
40650;BME280;26342;42.826;23.992;2022-12-28T10:47:03;96376.56;;;7.21;100.00
40650;BME280;26342;42.826;23.992;2022-12-28T10:49:34;96374.06;;;7.26;100.00
40650;BME280;26342;42.826;23.992;2022-12-28T10:54:32;96377.69;;;7.45;100.00
40650;BME280;26342;42.826;23.992;2022-12-28T10:56:59;96369.06;;;7.50;100.00
40650;BME280;26342;42.826;23.992;2022-12-28T10:59:26;96361.72;;;7.52;100.00
40650;BME280;26342;42.826;23.992;2022-12-28T11:01:53;96371.66;;;7.63;100.00
40650;BME280;26342;42.826;23.992;2022-12-28T11:04:24;96368.78;;;7.65;100.00
40650;BME280;26342;42.826;23.992;2022-12-28T11:06:58;96363.31;;;7.60;95.72
40650;BME280;26342;42.826;23.992;2022-12-28T11:09:30;96369.81;;;7.64;87.09
40650;BME280;26342;42.826;23.992;2022-12-28T11:12:16;96360.66;;;7.60;89.80
40650;BME280;26342;42.826;23.992;2022-12-28T11:14:43;96350.47;;;7.50;87.96
40650;BME280;26342;42.826;23.992;2022-12-28T11:19:50;96357.34;;;7.64;86.14
40650;BME280;26342;42.826;23.992;2022-12-28T11:22:24;96365.53;;;7.63;87.79
40650;BME280;26342;42.826;23.992;2022-12-28T11:24:50;96360.81;;;7.65;87.40
40650;BME280;26342;42.826;23.992;2022-12-28T11:27:19;96348.56;;;7.64;91.75
40650;BME280;26342;42.826;23.992;2022-12-28T11:29:47;96359.94;;;7.71;88.39
40650;BME280;26342;42.826;23.992;2022-12-28T11:32:35;96366.06;;;7.71;92.67
40650;BME280;26342;42.826;23.992;2022-12-28T11:35:03;96359.59;;;7.67;85.48
40650;BME280;26342;42.826;23.992;2022-12-28T11:37:28;96368.41;;;7.61;78.40
40650;BME280;26342;42.826;23.992;2022-12-28T11:39:54;96372.50;;;7.57;77.13
40650;BME280;26342;42.826;23.992;2022-12-28T11:46:07;96379.31;;;7.46;80.96
40650;BME280;26342;42.826;23.992;2022-12-28T11:51:16;96383.19;;;7.50;85.53
40650;BME280;26342;42.826;23.992;2022-12-28T11:56:15;96388.84;;;7.61;82.28
40650;BME280;26342;42.826;23.992;2022-12-28T12:01:11;96378.25;;;7.54;84.07
40650;BME280;26342;42.826;23.992;2022-12-28T12:04:07;96391.16;;;7.50;86.64
40650;BME280;26342;42.826;23.992;2022-12-28T12:11:56;96388.09;;;7.47;100.00
40650;BME280;26342;42.826;23.992;2022-12-28T12:14:35;96384.50;;;7.28;99.74
40650;BME280;26342;42.826;23.992;2022-12-28T12:17:06;96386.50;;;6.75;100.00
40650;BME280;26342;42.826;23.992;2022-12-28T12:19:37;96371.63;;;6.67;100.00
40650;BME280;26342;42.826;23.992;2022-12-28T12:25:17;96359.84;;;6.30;100.00
40650;BME280;26342;42.826;23.992;2022-12-28T12:27:51;96357.03;;;6.18;100.00
40650;BME280;26342;42.826;23.992;2022-12-28T12:30:20;96359.69;;;6.25;100.00
40650;BME280;26342;42.826;23.992;2022-12-28T12:35:16;96346.81;;;6.35;100.00
40650;BME280;26342;42.826;23.992;2022-12-28T12:51:31;96336.34;;;6.66;100.00
40650;BME280;26342;42.826;23.992;2022-12-28T12:56:59;96327.13;;;6.76;100.00
40650;BME280;26342;42.826;23.992;2022-12-28T12:59:44;96326.94;;;6.70;100.00
40650;BME280;26342;42.826;23.992;2022-12-28T13:05:04;96333.84;;;6.78;100.00
40650;BME280;26342;42.826;23.992;2022-12-28T13:07:31;96335.69;;;6.78;100.00
40650;BME280;26342;42.826;23.992;2022-12-28T13:10:01;96344.47;;;6.78;100.00
40650;BME280;26342;42.826;23.992;2022-12-28T13:12:27;96345.47;;;6.77;100.00
40650;BME280;26342;42.826;23.992;2022-12-28T13:14:58;96341.81;;;6.78;100.00
40650;BME280;26342;42.826;23.992;2022-12-28T13:17:25;96336.31;;;6.80;100.00
40650;BME280;26342;42.826;23.992;2022-12-28T13:20:19;96334.88;;;6.77;100.00
40650;BME280;26342;42.826;23.992;2022-12-28T13:22:46;96329.56;;;6.77;100.00
40650;BME280;26342;42.826;23.992;2022-12-28T13:25:29;96335.66;;;6.84;100.00
40650;BME280;26342;42.826;23.992;2022-12-28T13:27:56;96338.75;;;6.81;100.00
40650;BME280;26342;42.826;23.992;2022-12-28T13:30:23;96330.59;;;6.76;100.00
40650;BME280;26342;42.826;23.992;2022-12-28T13:35:30;96327.56;;;6.72;100.00
40650;BME280;26342;42.826;23.992;2022-12-28T13:40:24;96313.31;;;6.60;100.00
40650;BME280;26342;42.826;23.992;2022-12-28T13:42:59;96316.41;;;6.51;100.00
40650;BME280;26342;42.826;23.992;2022-12-28T13:45:27;96312.56;;;6.33;100.00
40650;BME280;26342;42.826;23.992;2022-12-28T13:47:53;96317.47;;;6.17;100.00
40650;BME280;26342;42.826;23.992;2022-12-28T13:55:29;96313.78;;;5.84;100.00
40650;BME280;26342;42.826;23.992;2022-12-28T13:58:00;96307.06;;;5.88;100.00
40650;BME280;26342;42.826;23.992;2022-12-28T14:00:28;96306.03;;;5.89;100.00
40650;BME280;26342;42.826;23.992;2022-12-28T14:02:55;96311.38;;;5.96;100.00
40650;BME280;26342;42.826;23.992;2022-12-28T14:05:27;96311.97;;;6.05;100.00
40650;BME280;26342;42.826;23.992;2022-12-28T14:07:54;96313.00;;;6.17;100.00
40650;BME280;26342;42.826;23.992;2022-12-28T14:10:22;96309.50;;;6.23;100.00
40650;BME280;26342;42.826;23.992;2022-12-28T14:12:48;96316.25;;;6.26;100.00
40650;BME280;26342;42.826;23.992;2022-12-28T14:15:15;96319.91;;;6.25;100.00
40650;BME280;26342;42.826;23.992;2022-12-28T14:17:41;96318.91;;;6.26;100.00
40650;BME280;26342;42.826;23.992;2022-12-28T14:20:07;96323.97;;;6.27;100.00
40650;BME280;26342;42.826;23.992;2022-12-28T14:22:40;96325.59;;;6.28;100.00
40650;BME280;26342;42.826;23.992;2022-12-28T14:25:12;96331.50;;;6.30;100.00
40650;BME280;26342;42.826;23.992;2022-12-28T14:27:43;96339.25;;;6.32;100.00
40650;BME280;26342;42.826;23.992;2022-12-28T14:32:46;96342.53;;;6.27;100.00
40650;BME280;26342;42.826;23.992;2022-12-28T14:35:22;96345.63;;;6.24;100.00
40650;BME280;26342;42.826;23.992;2022-12-28T14:37:51;96347.84;;;6.21;100.00